sensor_id;sensor_type;location;lat;lon;timestamp;P1;durP1;ratioP1;P2;durP2;ratioP2
82630;SDS011;72301;52.376;9.738;2024-01-07T00:00:16;6.15;;;2.63;;
82630;SDS011;72301;52.376;9.738;2024-01-07T00:02:42;6.22;;;2.78;;
82630;SDS011;72301;52.376;9.738;2024-01-07T00:05:07;6.90;;;2.88;;
82630;SDS011;72301;52.376;9.738;2024-01-07T00:07:34;7.03;;;3.30;;
82630;SDS011;72301;52.376;9.738;2024-01-07T00:09:59;6.30;;;2.72;;
82630;SDS011;72301;52.376;9.738;2024-01-07T00:12:24;6.33;;;2.93;;
82630;SDS011;72301;52.376;9.738;2024-01-07T00:14:50;6.90;;;3.08;;
82630;SDS011;72301;52.376;9.738;2024-01-07T00:17:16;6.28;;;3.10;;
82630;SDS011;72301;52.376;9.738;2024-01-07T00:19:44;6.18;;;2.90;;
82630;SDS011;72301;52.376;9.738;2024-01-07T00:22:10;6.28;;;3.20;;
82630;SDS011;72301;52.376;9.738;2024-01-07T00:24:35;7.70;;;3.60;;
82630;SDS011;72301;52.376;9.738;2024-01-07T00:27:00;5.88;;;2.58;;
82630;SDS011;72301;52.376;9.738;2024-01-07T00:29:28;6.15;;;2.90;;
82630;SDS011;72301;52.376;9.738;2024-01-07T00:31:54;6.30;;;2.80;;
82630;SDS011;72301;52.376;9.738;2024-01-07T00:34:25;6.35;;;2.90;;
82630;SDS011;72301;52.376;9.738;2024-01-07T00:36:51;6.47;;;2.63;;
82630;SDS011;72301;52.376;9.738;2024-01-07T00:39:16;5.75;;;2.45;;
82630;SDS011;72301;52.376;9.738;2024-01-07T00:41:41;7.68;;;3.08;;
82630;SDS011;72301;52.376;9.738;2024-01-07T00:44:07;6.55;;;2.95;;
82630;SDS011;72301;52.376;9.738;2024-01-07T00:46:35;6.60;;;2.93;;
82630;SDS011;72301;52.376;9.738;2024-01-07T00:49:03;6.75;;;3.10;;
82630;SDS011;72301;52.376;9.738;2024-01-07T00:51:29;6.90;;;3.30;;
82630;SDS011;72301;52.376;9.738;2024-01-07T00:53:54;6.72;;;2.88;;
82630;SDS011;72301;52.376;9.738;2024-01-07T00:56:19;5.97;;;2.47;;
82630;SDS011;72301;52.376;9.738;2024-01-07T00:58:45;6.60;;;3.08;;
82630;SDS011;72301;52.376;9.738;2024-01-07T01:01:10;6.57;;;2.67;;
82630;SDS011;72301;52.376;9.738;2024-01-07T01:03:35;7.23;;;3.00;;
82630;SDS011;72301;52.376;9.738;2024-01-07T01:06:01;6.67;;;2.93;;
82630;SDS011;72301;52.376;9.738;2024-01-07T01:08:27;8.13;;;3.28;;
82630;SDS011;72301;52.376;9.738;2024-01-07T01:10:53;5.63;;;2.15;;
82630;SDS011;72301;52.376;9.738;2024-01-07T01:13:18;6.47;;;2.67;;
82630;SDS011;72301;52.376;9.738;2024-01-07T01:15:43;6.55;;;3.22;;
82630;SDS011;72301;52.376;9.738;2024-01-07T01:18:09;6.80;;;3.03;;
82630;SDS011;72301;52.376;9.738;2024-01-07T01:20:40;6.88;;;3.08;;
82630;SDS011;72301;52.376;9.738;2024-01-07T01:23:06;6.85;;;3.00;;
82630;SDS011;72301;52.376;9.738;2024-01-07T01:25:31;6.22;;;2.70;;
82630;SDS011;72301;52.376;9.738;2024-01-07T01:27:57;6.93;;;3.15;;
82630;SDS011;72301;52.376;9.738;2024-01-07T01:30:22;6.03;;;2.20;;
82630;SDS011;72301;52.376;9.738;2024-01-07T01:32:47;6.35;;;2.72;;
82630;SDS011;72301;52.376;9.738;2024-01-07T01:35:13;6.60;;;3.30;;
82630;SDS011;72301;52.376;9.738;2024-01-07T01:37:38;5.57;;;2.67;;
82630;SDS011;72301;52.376;9.738;2024-01-07T01:40:04;6.20;;;2.63;;
82630;SDS011;72301;52.376;9.738;2024-01-07T01:42:30;5.93;;;2.60;;
82630;SDS011;72301;52.376;9.738;2024-01-07T01:44:55;6.80;;;3.00;;
82630;SDS011;72301;52.376;9.738;2024-01-07T01:47:24;5.57;;;2.50;;
82630;SDS011;72301;52.376;9.738;2024-01-07T01:49:50;6.47;;;2.72;;
82630;SDS011;72301;52.376;9.738;2024-01-07T01:52:15;7.20;;;2.90;;
82630;SDS011;72301;52.376;9.738;2024-01-07T01:54:40;5.30;;;1.97;;
82630;SDS011;72301;52.376;9.738;2024-01-07T01:57:06;7.28;;;2.90;;
82630;SDS011;72301;52.376;9.738;2024-01-07T01:59:33;5.85;;;2.30;;
82630;SDS011;72301;52.376;9.738;2024-01-07T02:01:59;6.63;;;2.80;;
82630;SDS011;72301;52.376;9.738;2024-01-07T02:04:26;6.35;;;2.30;;
82630;SDS011;72301;52.376;9.738;2024-01-07T02:06:51;6.28;;;2.50;;
82630;SDS011;72301;52.376;9.738;2024-01-07T02:09:17;5.88;;;2.53;;
82630;SDS011;72301;52.376;9.738;2024-01-07T02:11:42;6.57;;;2.50;;
82630;SDS011;72301;52.376;9.738;2024-01-07T02:14:07;6.07;;;2.70;;
82630;SDS011;72301;52.376;9.738;2024-01-07T02:16:33;6.50;;;2.97;;
82630;SDS011;72301;52.376;9.738;2024-01-07T02:18:58;7.27;;;2.97;;
82630;SDS011;72301;52.376;9.738;2024-01-07T02:21:24;6.93;;;2.55;;
82630;SDS011;72301;52.376;9.738;2024-01-07T02:23:49;5.70;;;2.55;;
82630;SDS011;72301;52.376;9.738;2024-01-07T02:26:14;6.47;;;2.65;;
82630;SDS011;72301;52.376;9.738;2024-01-07T02:28:40;6.30;;;2.58;;
82630;SDS011;72301;52.376;9.738;2024-01-07T02:31:06;7.60;;;3.10;;
82630;SDS011;72301;52.376;9.738;2024-01-07T02:33:32;6.63;;;3.10;;
82630;SDS011;72301;52.376;9.738;2024-01-07T02:35:57;6.18;;;2.50;;
82630;SDS011;72301;52.376;9.738;2024-01-07T02:38:23;5.90;;;2.60;;
82630;SDS011;72301;52.376;9.738;2024-01-07T02:40:48;7.40;;;3.10;;
82630;SDS011;72301;52.376;9.738;2024-01-07T02:43:13;6.60;;;2.70;;
82630;SDS011;72301;52.376;9.738;2024-01-07T02:45:39;6.85;;;2.65;;
82630;SDS011;72301;52.376;9.738;2024-01-07T02:48:04;5.60;;;2.23;;
82630;SDS011;72301;52.376;9.738;2024-01-07T02:50:30;10.25;;;2.95;;
82630;SDS011;72301;52.376;9.738;2024-01-07T02:52:56;6.03;;;2.50;;
82630;SDS011;72301;52.376;9.738;2024-01-07T02:55:22;6.03;;;2.40;;
82630;SDS011;72301;52.376;9.738;2024-01-07T02:57:47;6.23;;;2.03;;
82630;SDS011;72301;52.376;9.738;2024-01-07T03:00:12;5.78;;;2.40;;
82630;SDS011;72301;52.376;9.738;2024-01-07T03:02:38;5.72;;;2.30;;
82630;SDS011;72301;52.376;9.738;2024-01-07T03:05:04;7.30;;;2.33;;
82630;SDS011;72301;52.376;9.738;2024-01-07T03:07:29;5.43;;;1.95;;
82630;SDS011;72301;52.376;9.738;2024-01-07T03:09:55;5.68;;;2.40;;
82630;SDS011;72301;52.376;9.738;2024-01-07T03:12:20;5.88;;;2.40;;
82630;SDS011;72301;52.376;9.738;2024-01-07T03:14:45;5.83;;;2.43;;
82630;SDS011;72301;52.376;9.738;2024-01-07T03:17:10;5.93;;;2.23;;
82630;SDS011;72301;52.376;9.738;2024-01-07T03:19:37;5.90;;;2.23;;
82630;SDS011;72301;52.376;9.738;2024-01-07T03:22:02;6.90;;;2.67;;
82630;SDS011;72301;52.376;9.738;2024-01-07T03:24:28;6.53;;;2.55;;
82630;SDS011;72301;52.376;9.738;2024-01-07T03:26:53;5.83;;;2.40;;
82630;SDS011;72301;52.376;9.738;2024-01-07T03:29:19;5.28;;;1.95;;
82630;SDS011;72301;52.376;9.738;2024-01-07T03:31:44;5.93;;;2.30;;
82630;SDS011;72301;52.376;9.738;2024-01-07T03:34:09;5.57;;;2.30;;
82630;SDS011;72301;52.376;9.738;2024-01-07T03:36:35;5.45;;;2.28;;
82630;SDS011;72301;52.376;9.738;2024-01-07T03:39:00;6.43;;;2.15;;
82630;SDS011;72301;52.376;9.738;2024-01-07T03:41:25;5.57;;;2.27;;
82630;SDS011;72301;52.376;9.738;2024-01-07T03:43:51;6.30;;;2.13;;
82630;SDS011;72301;52.376;9.738;2024-01-07T03:46:18;6.43;;;2.20;;
82630;SDS011;72301;52.376;9.738;2024-01-07T03:48:43;6.63;;;2.42;;
82630;SDS011;72301;52.376;9.738;2024-01-07T03:51:09;8.55;;;2.60;;
82630;SDS011;72301;52.376;9.738;2024-01-07T03:53:34;6.05;;;2.45;;
82630;SDS011;72301;52.376;9.738;2024-01-07T03:56:00;5.77;;;2.10;;
82630;SDS011;72301;52.376;9.738;2024-01-07T03:58:25;5.93;;;2.15;;
82630;SDS011;72301;52.376;9.738;2024-01-07T04:00:51;5.45;;;2.00;;
82630;SDS011;72301;52.376;9.738;2024-01-07T04:03:16;5.77;;;1.97;;
82630;SDS011;72301;52.376;9.738;2024-01-07T04:05:41;5.72;;;2.10;;
82630;SDS011;72301;52.376;9.738;2024-01-07T04:08:09;5.82;;;1.90;;
82630;SDS011;72301;52.376;9.738;2024-01-07T04:10:34;5.05;;;1.75;;
82630;SDS011;72301;52.376;9.738;2024-01-07T04:13:00;6.67;;;2.07;;
82630;SDS011;72301;52.376;9.738;2024-01-07T04:15:25;4.70;;;1.90;;
82630;SDS011;72301;52.376;9.738;2024-01-07T04:17:50;6.40;;;2.13;;
82630;SDS011;72301;52.376;9.738;2024-01-07T04:20:16;5.10;;;2.10;;
82630;SDS011;72301;52.376;9.738;2024-01-07T04:22:41;5.40;;;2.03;;
82630;SDS011;72301;52.376;9.738;2024-01-07T04:25:07;5.35;;;1.80;;
82630;SDS011;72301;52.376;9.738;2024-01-07T04:27:36;5.50;;;1.92;;
82630;SDS011;72301;52.376;9.738;2024-01-07T04:30:04;5.47;;;1.90;;
82630;SDS011;72301;52.376;9.738;2024-01-07T04:32:30;4.93;;;1.70;;
82630;SDS011;72301;52.376;9.738;2024-01-07T04:34:56;5.18;;;2.50;;
82630;SDS011;72301;52.376;9.738;2024-01-07T04:37:22;5.70;;;1.90;;
82630;SDS011;72301;52.376;9.738;2024-01-07T04:39:48;4.35;;;1.77;;
82630;SDS011;72301;52.376;9.738;2024-01-07T04:42:14;5.97;;;1.75;;
82630;SDS011;72301;52.376;9.738;2024-01-07T04:44:39;4.40;;;1.65;;
82630;SDS011;72301;52.376;9.738;2024-01-07T04:47:05;5.57;;;1.90;;
82630;SDS011;72301;52.376;9.738;2024-01-07T04:49:59;4.80;;;1.83;;
82630;SDS011;72301;52.376;9.738;2024-01-07T04:52:24;5.28;;;1.73;;
82630;SDS011;72301;52.376;9.738;2024-01-07T04:54:50;5.30;;;1.90;;
82630;SDS011;72301;52.376;9.738;2024-01-07T04:57:16;5.35;;;2.03;;
82630;SDS011;72301;52.376;9.738;2024-01-07T04:59:42;4.63;;;1.70;;
82630;SDS011;72301;52.376;9.738;2024-01-07T05:02:07;5.80;;;2.05;;
82630;SDS011;72301;52.376;9.738;2024-01-07T05:04:33;4.63;;;1.50;;
82630;SDS011;72301;52.376;9.738;2024-01-07T05:06:58;5.43;;;1.95;;
82630;SDS011;72301;52.376;9.738;2024-01-07T05:09:23;5.23;;;2.03;;
82630;SDS011;72301;52.376;9.738;2024-01-07T05:11:49;5.07;;;2.10;;
82630;SDS011;72301;52.376;9.738;2024-01-07T05:14:14;5.07;;;1.90;;
82630;SDS011;72301;52.376;9.738;2024-01-07T05:16:40;5.72;;;2.10;;
82630;SDS011;72301;52.376;9.738;2024-01-07T05:19:05;7.75;;;2.25;;
82630;SDS011;72301;52.376;9.738;2024-01-07T05:21:31;5.18;;;1.67;;
82630;SDS011;72301;52.376;9.738;2024-01-07T05:23:56;6.03;;;1.98;;
82630;SDS011;72301;52.376;9.738;2024-01-07T05:26:24;5.30;;;2.05;;
82630;SDS011;72301;52.376;9.738;2024-01-07T05:28:49;4.82;;;1.75;;
82630;SDS011;72301;52.376;9.738;2024-01-07T05:31:18;5.00;;;1.80;;
82630;SDS011;72301;52.376;9.738;2024-01-07T05:33:44;5.03;;;1.70;;
82630;SDS011;72301;52.376;9.738;2024-01-07T05:36:10;5.75;;;2.25;;
82630;SDS011;72301;52.376;9.738;2024-01-07T05:38:36;5.60;;;1.80;;
82630;SDS011;72301;52.376;9.738;2024-01-07T05:41:01;5.93;;;1.80;;
82630;SDS011;72301;52.376;9.738;2024-01-07T05:43:27;5.22;;;1.77;;
82630;SDS011;72301;52.376;9.738;2024-01-07T05:45:52;4.97;;;1.80;;
82630;SDS011;72301;52.376;9.738;2024-01-07T05:48:26;4.90;;;2.00;;
82630;SDS011;72301;52.376;9.738;2024-01-07T05:50:52;4.75;;;1.65;;
82630;SDS011;72301;52.376;9.738;2024-01-07T05:53:18;5.85;;;1.83;;
82630;SDS011;72301;52.376;9.738;2024-01-07T05:55:43;5.22;;;1.60;;
82630;SDS011;72301;52.376;9.738;2024-01-07T05:58:08;4.65;;;1.67;;
82630;SDS011;72301;52.376;9.738;2024-01-07T06:00:34;4.07;;;1.40;;
82630;SDS011;72301;52.376;9.738;2024-01-07T06:03:00;5.53;;;1.73;;
82630;SDS011;72301;52.376;9.738;2024-01-07T06:05:25;4.40;;;1.85;;
82630;SDS011;72301;52.376;9.738;2024-01-07T06:07:51;5.57;;;1.83;;
82630;SDS011;72301;52.376;9.738;2024-01-07T06:10:16;4.88;;;1.63;;
82630;SDS011;72301;52.376;9.738;2024-01-07T06:12:42;5.20;;;1.80;;
82630;SDS011;72301;52.376;9.738;2024-01-07T06:15:07;4.85;;;1.70;;
82630;SDS011;72301;52.376;9.738;2024-01-07T06:17:33;4.53;;;1.50;;
82630;SDS011;72301;52.376;9.738;2024-01-07T06:19:59;4.32;;;1.50;;
82630;SDS011;72301;52.376;9.738;2024-01-07T06:22:24;5.03;;;1.57;;
82630;SDS011;72301;52.376;9.738;2024-01-07T06:24:52;4.93;;;1.65;;
82630;SDS011;72301;52.376;9.738;2024-01-07T06:27:17;3.85;;;1.42;;
82630;SDS011;72301;52.376;9.738;2024-01-07T06:29:43;5.00;;;1.38;;
82630;SDS011;72301;52.376;9.738;2024-01-07T06:32:08;4.45;;;1.42;;
82630;SDS011;72301;52.376;9.738;2024-01-07T06:34:35;4.22;;;1.45;;
82630;SDS011;72301;52.376;9.738;2024-01-07T06:37:00;4.35;;;1.40;;
82630;SDS011;72301;52.376;9.738;2024-01-07T06:39:26;3.78;;;1.45;;
82630;SDS011;72301;52.376;9.738;2024-01-07T06:41:54;4.70;;;1.50;;
82630;SDS011;72301;52.376;9.738;2024-01-07T06:44:19;4.80;;;1.75;;
82630;SDS011;72301;52.376;9.738;2024-01-07T06:46:45;5.32;;;2.00;;
82630;SDS011;72301;52.376;9.738;2024-01-07T06:49:10;4.63;;;1.60;;
82630;SDS011;72301;52.376;9.738;2024-01-07T06:51:37;4.82;;;1.60;;
82630;SDS011;72301;52.376;9.738;2024-01-07T06:54:03;5.90;;;1.80;;
82630;SDS011;72301;52.376;9.738;2024-01-07T06:56:28;4.35;;;1.40;;
82630;SDS011;72301;52.376;9.738;2024-01-07T06:58:54;4.70;;;1.60;;
82630;SDS011;72301;52.376;9.738;2024-01-07T07:01:20;6.80;;;1.77;;
82630;SDS011;72301;52.376;9.738;2024-01-07T07:03:46;5.00;;;1.83;;
82630;SDS011;72301;52.376;9.738;2024-01-07T07:06:12;5.10;;;1.60;;
82630;SDS011;72301;52.376;9.738;2024-01-07T07:08:37;4.70;;;1.88;;
82630;SDS011;72301;52.376;9.738;2024-01-07T07:11:03;4.47;;;1.38;;
82630;SDS011;72301;52.376;9.738;2024-01-07T07:13:29;5.35;;;1.60;;
82630;SDS011;72301;52.376;9.738;2024-01-07T07:15:54;5.10;;;1.90;;
82630;SDS011;72301;52.376;9.738;2024-01-07T07:18:19;4.13;;;1.50;;
82630;SDS011;72301;52.376;9.738;2024-01-07T07:20:45;4.93;;;1.53;;
82630;SDS011;72301;52.376;9.738;2024-01-07T07:23:10;4.90;;;1.80;;
82630;SDS011;72301;52.376;9.738;2024-01-07T07:25:36;4.77;;;1.63;;
82630;SDS011;72301;52.376;9.738;2024-01-07T07:28:01;4.40;;;1.60;;
82630;SDS011;72301;52.376;9.738;2024-01-07T07:30:27;4.45;;;1.63;;
82630;SDS011;72301;52.376;9.738;2024-01-07T07:32:52;4.25;;;1.40;;
82630;SDS011;72301;52.376;9.738;2024-01-07T07:35:18;4.40;;;1.75;;
82630;SDS011;72301;52.376;9.738;2024-01-07T07:37:43;3.97;;;1.42;;
82630;SDS011;72301;52.376;9.738;2024-01-07T07:40:09;6.10;;;1.90;;
82630;SDS011;72301;52.376;9.738;2024-01-07T07:42:37;4.90;;;1.77;;
82630;SDS011;72301;52.376;9.738;2024-01-07T07:45:06;4.75;;;1.60;;
82630;SDS011;72301;52.376;9.738;2024-01-07T07:47:32;4.10;;;1.50;;
82630;SDS011;72301;52.376;9.738;2024-01-07T07:49:57;4.85;;;1.80;;
82630;SDS011;72301;52.376;9.738;2024-01-07T07:52:23;4.38;;;1.73;;
82630;SDS011;72301;52.376;9.738;2024-01-07T07:54:53;5.28;;;2.00;;
82630;SDS011;72301;52.376;9.738;2024-01-07T07:57:19;5.57;;;1.90;;
82630;SDS011;72301;52.376;9.738;2024-01-07T07:59:46;4.50;;;1.65;;
82630;SDS011;72301;52.376;9.738;2024-01-07T08:02:13;5.40;;;1.70;;
82630;SDS011;72301;52.376;9.738;2024-01-07T08:04:38;5.50;;;1.55;;
82630;SDS011;72301;52.376;9.738;2024-01-07T08:07:06;5.20;;;1.60;;
82630;SDS011;72301;52.376;9.738;2024-01-07T08:09:32;4.50;;;1.73;;
82630;SDS011;72301;52.376;9.738;2024-01-07T08:11:57;4.50;;;1.73;;
82630;SDS011;72301;52.376;9.738;2024-01-07T08:14:23;5.03;;;1.60;;
82630;SDS011;72301;52.376;9.738;2024-01-07T08:16:48;4.82;;;1.60;;
82630;SDS011;72301;52.376;9.738;2024-01-07T08:19:14;4.97;;;1.83;;
82630;SDS011;72301;52.376;9.738;2024-01-07T08:21:39;4.53;;;1.60;;
82630;SDS011;72301;52.376;9.738;2024-01-07T08:24:04;5.83;;;1.90;;
82630;SDS011;72301;52.376;9.738;2024-01-07T08:26:30;4.60;;;1.83;;
82630;SDS011;72301;52.376;9.738;2024-01-07T08:28:56;4.50;;;1.52;;
82630;SDS011;72301;52.376;9.738;2024-01-07T08:31:22;5.60;;;1.63;;
82630;SDS011;72301;52.376;9.738;2024-01-07T08:33:47;4.75;;;1.55;;
82630;SDS011;72301;52.376;9.738;2024-01-07T08:36:12;4.30;;;1.60;;
82630;SDS011;72301;52.376;9.738;2024-01-07T08:38:38;5.43;;;1.83;;
82630;SDS011;72301;52.376;9.738;2024-01-07T08:41:03;5.57;;;1.70;;
82630;SDS011;72301;52.376;9.738;2024-01-07T08:43:29;5.57;;;1.92;;
82630;SDS011;72301;52.376;9.738;2024-01-07T08:45:55;5.47;;;1.48;;
82630;SDS011;72301;52.376;9.738;2024-01-07T08:48:20;4.50;;;1.53;;
82630;SDS011;72301;52.376;9.738;2024-01-07T08:50:45;4.00;;;1.10;;
82630;SDS011;72301;52.376;9.738;2024-01-07T08:53:11;4.75;;;1.92;;
82630;SDS011;72301;52.376;9.738;2024-01-07T08:55:37;4.20;;;1.42;;
82630;SDS011;72301;52.376;9.738;2024-01-07T08:58:03;5.22;;;1.70;;
82630;SDS011;72301;52.376;9.738;2024-01-07T09:00:28;4.43;;;1.48;;
82630;SDS011;72301;52.376;9.738;2024-01-07T09:02:56;4.95;;;1.50;;
82630;SDS011;72301;52.376;9.738;2024-01-07T09:05:22;4.25;;;1.50;;
82630;SDS011;72301;52.376;9.738;2024-01-07T09:07:49;5.45;;;1.92;;
82630;SDS011;72301;52.376;9.738;2024-01-07T09:10:14;4.65;;;1.40;;
82630;SDS011;72301;52.376;9.738;2024-01-07T09:12:40;5.15;;;1.80;;
82630;SDS011;72301;52.376;9.738;2024-01-07T09:15:06;4.55;;;1.60;;
82630;SDS011;72301;52.376;9.738;2024-01-07T09:17:35;5.05;;;1.70;;
82630;SDS011;72301;52.376;9.738;2024-01-07T09:20:02;4.22;;;1.50;;
82630;SDS011;72301;52.376;9.738;2024-01-07T09:22:29;4.60;;;1.52;;
82630;SDS011;72301;52.376;9.738;2024-01-07T09:24:55;4.57;;;1.60;;
82630;SDS011;72301;52.376;9.738;2024-01-07T09:27:21;4.57;;;1.50;;
82630;SDS011;72301;52.376;9.738;2024-01-07T09:29:46;5.18;;;1.65;;
82630;SDS011;72301;52.376;9.738;2024-01-07T09:32:12;5.18;;;1.60;;
82630;SDS011;72301;52.376;9.738;2024-01-07T09:34:37;5.40;;;1.73;;
82630;SDS011;72301;52.376;9.738;2024-01-07T09:37:02;4.17;;;1.90;;
82630;SDS011;72301;52.376;9.738;2024-01-07T09:39:28;4.35;;;1.40;;
82630;SDS011;72301;52.376;9.738;2024-01-07T09:41:53;4.35;;;1.40;;
82630;SDS011;72301;52.376;9.738;2024-01-07T09:44:19;5.00;;;1.48;;
82630;SDS011;72301;52.376;9.738;2024-01-07T09:46:44;5.57;;;1.85;;
82630;SDS011;72301;52.376;9.738;2024-01-07T09:49:10;4.80;;;1.70;;
82630;SDS011;72301;52.376;9.738;2024-01-07T09:51:36;4.60;;;1.70;;
82630;SDS011;72301;52.376;9.738;2024-01-07T09:54:03;4.97;;;1.67;;
82630;SDS011;72301;52.376;9.738;2024-01-07T09:56:33;6.40;;;1.60;;
82630;SDS011;72301;52.376;9.738;2024-01-07T09:59:02;5.18;;;1.60;;
82630;SDS011;72301;52.376;9.738;2024-01-07T10:01:28;3.97;;;1.30;;
82630;SDS011;72301;52.376;9.738;2024-01-07T10:03:53;5.00;;;1.70;;
82630;SDS011;72301;52.376;9.738;2024-01-07T10:06:19;5.50;;;1.50;;
82630;SDS011;72301;52.376;9.738;2024-01-07T10:08:46;4.55;;;1.45;;
82630;SDS011;72301;52.376;9.738;2024-01-07T10:11:13;4.68;;;1.70;;
82630;SDS011;72301;52.376;9.738;2024-01-07T10:13:39;4.75;;;1.65;;
82630;SDS011;72301;52.376;9.738;2024-01-07T10:16:04;4.43;;;1.47;;
82630;SDS011;72301;52.376;9.738;2024-01-07T10:18:30;3.35;;;1.10;;
82630;SDS011;72301;52.376;9.738;2024-01-07T10:20:58;4.53;;;1.48;;
82630;SDS011;72301;52.376;9.738;2024-01-07T10:23:28;4.93;;;1.50;;
82630;SDS011;72301;52.376;9.738;2024-01-07T10:25:53;4.13;;;1.40;;
82630;SDS011;72301;52.376;9.738;2024-01-07T10:28:22;4.00;;;1.50;;
82630;SDS011;72301;52.376;9.738;2024-01-07T10:30:50;4.68;;;1.50;;
82630;SDS011;72301;52.376;9.738;2024-01-07T10:33:18;5.18;;;1.70;;
82630;SDS011;72301;52.376;9.738;2024-01-07T10:35:47;4.50;;;1.48;;
82630;SDS011;72301;52.376;9.738;2024-01-07T10:38:16;4.32;;;1.42;;
82630;SDS011;72301;52.376;9.738;2024-01-07T10:40:42;4.80;;;1.67;;
82630;SDS011;72301;52.376;9.738;2024-01-07T10:43:08;4.18;;;1.45;;
82630;SDS011;72301;52.376;9.738;2024-01-07T10:45:33;4.13;;;1.50;;
82630;SDS011;72301;52.376;9.738;2024-01-07T10:47:59;4.53;;;1.38;;
82630;SDS011;72301;52.376;9.738;2024-01-07T10:50:31;3.97;;;1.25;;
82630;SDS011;72301;52.376;9.738;2024-01-07T10:52:57;4.68;;;1.40;;
82630;SDS011;72301;52.376;9.738;2024-01-07T10:55:23;4.15;;;1.40;;
82630;SDS011;72301;52.376;9.738;2024-01-07T10:57:51;4.68;;;1.30;;
82630;SDS011;72301;52.376;9.738;2024-01-07T11:00:19;4.32;;;1.45;;
82630;SDS011;72301;52.376;9.738;2024-01-07T11:08:23;4.05;;;1.27;;
82630;SDS011;72301;52.376;9.738;2024-01-07T11:11:13;4.13;;;1.33;;
82630;SDS011;72301;52.376;9.738;2024-01-07T11:13:41;4.22;;;1.35;;
82630;SDS011;72301;52.376;9.738;2024-01-07T11:16:09;3.50;;;1.40;;
82630;SDS011;72301;52.376;9.738;2024-01-07T11:18:37;4.75;;;1.35;;
82630;SDS011;72301;52.376;9.738;2024-01-07T11:21:04;4.07;;;1.30;;
82630;SDS011;72301;52.376;9.738;2024-01-07T11:23:34;4.13;;;1.55;;
82630;SDS011;72301;52.376;9.738;2024-01-07T11:26:05;3.50;;;1.20;;
82630;SDS011;72301;52.376;9.738;2024-01-07T11:31:16;3.97;;;1.33;;
82630;SDS011;72301;52.376;9.738;2024-01-07T11:33:43;2.78;;;1.20;;
82630;SDS011;72301;52.376;9.738;2024-01-07T11:36:10;4.18;;;1.63;;
82630;SDS011;72301;52.376;9.738;2024-01-07T11:38:36;4.28;;;1.20;;
82630;SDS011;72301;52.376;9.738;2024-01-07T11:41:04;4.15;;;1.40;;
82630;SDS011;72301;52.376;9.738;2024-01-07T11:43:31;3.85;;;1.33;;
82630;SDS011;72301;52.376;9.738;2024-01-07T11:45:57;3.67;;;1.20;;
82630;SDS011;72301;52.376;9.738;2024-01-07T11:48:23;4.22;;;1.33;;
82630;SDS011;72301;52.376;9.738;2024-01-07T11:50:48;3.78;;;1.40;;
82630;SDS011;72301;52.376;9.738;2024-01-07T11:53:14;4.18;;;1.50;;
82630;SDS011;72301;52.376;9.738;2024-01-07T11:55:39;3.30;;;1.35;;
82630;SDS011;72301;52.376;9.738;2024-01-07T11:58:05;4.18;;;1.35;;
82630;SDS011;72301;52.376;9.738;2024-01-07T12:00:31;3.63;;;1.15;;
82630;SDS011;72301;52.376;9.738;2024-01-07T12:02:57;4.88;;;1.73;;
82630;SDS011;72301;52.376;9.738;2024-01-07T12:05:23;3.70;;;1.35;;
82630;SDS011;72301;52.376;9.738;2024-01-07T12:07:48;4.53;;;1.47;;
82630;SDS011;72301;52.376;9.738;2024-01-07T12:10:14;4.27;;;1.40;;
82630;SDS011;72301;52.376;9.738;2024-01-07T12:12:40;4.78;;;1.70;;
82630;SDS011;72301;52.376;9.738;2024-01-07T12:15:07;3.85;;;1.40;;
82630;SDS011;72301;52.376;9.738;2024-01-07T12:17:33;4.68;;;1.60;;
82630;SDS011;72301;52.376;9.738;2024-01-07T12:19:58;3.97;;;1.27;;
82630;SDS011;72301;52.376;9.738;2024-01-07T12:22:26;4.32;;;1.55;;
82630;SDS011;72301;52.376;9.738;2024-01-07T12:25:07;4.10;;;1.30;;
82630;SDS011;72301;52.376;9.738;2024-01-07T12:27:33;5.28;;;1.83;;
82630;SDS011;72301;52.376;9.738;2024-01-07T12:30:00;3.08;;;1.20;;
82630;SDS011;72301;52.376;9.738;2024-01-07T12:32:26;3.72;;;1.48;;
82630;SDS011;72301;52.376;9.738;2024-01-07T12:34:51;4.13;;;1.45;;
82630;SDS011;72301;52.376;9.738;2024-01-07T12:37:17;4.30;;;1.53;;
82630;SDS011;72301;52.376;9.738;2024-01-07T12:39:42;3.75;;;1.30;;
82630;SDS011;72301;52.376;9.738;2024-01-07T12:42:07;5.57;;;1.60;;
82630;SDS011;72301;52.376;9.738;2024-01-07T12:44:34;4.22;;;1.50;;
82630;SDS011;72301;52.376;9.738;2024-01-07T12:47:01;3.75;;;1.50;;
82630;SDS011;72301;52.376;9.738;2024-01-07T12:49:28;4.97;;;1.58;;
82630;SDS011;72301;52.376;9.738;2024-01-07T12:51:53;4.50;;;1.50;;
82630;SDS011;72301;52.376;9.738;2024-01-07T12:54:19;3.83;;;1.42;;
82630;SDS011;72301;52.376;9.738;2024-01-07T12:56:44;4.67;;;1.87;;
82630;SDS011;72301;52.376;9.738;2024-01-07T12:59:09;5.10;;;1.77;;
82630;SDS011;72301;52.376;9.738;2024-01-07T13:01:35;3.80;;;1.40;;
82630;SDS011;72301;52.376;9.738;2024-01-07T13:04:01;4.03;;;1.50;;
82630;SDS011;72301;52.376;9.738;2024-01-07T13:06:27;4.95;;;1.48;;
82630;SDS011;72301;52.376;9.738;2024-01-07T13:08:52;4.37;;;1.47;;
82630;SDS011;72301;52.376;9.738;2024-01-07T13:11:19;3.90;;;1.35;;
82630;SDS011;72301;52.376;9.738;2024-01-07T13:13:44;4.83;;;1.30;;
82630;SDS011;72301;52.376;9.738;2024-01-07T13:16:10;3.80;;;1.42;;
82630;SDS011;72301;52.376;9.738;2024-01-07T13:18:36;4.03;;;1.40;;
82630;SDS011;72301;52.376;9.738;2024-01-07T13:21:02;4.40;;;1.50;;
82630;SDS011;72301;52.376;9.738;2024-01-07T13:23:28;4.63;;;1.60;;
82630;SDS011;72301;52.376;9.738;2024-01-07T13:25:53;4.28;;;1.60;;
82630;SDS011;72301;52.376;9.738;2024-01-07T13:28:19;4.55;;;1.60;;
82630;SDS011;72301;52.376;9.738;2024-01-07T13:30:44;4.40;;;1.50;;
82630;SDS011;72301;52.376;9.738;2024-01-07T13:33:10;4.70;;;1.70;;
82630;SDS011;72301;52.376;9.738;2024-01-07T13:35:35;4.60;;;1.50;;
82630;SDS011;72301;52.376;9.738;2024-01-07T13:38:00;4.83;;;1.80;;
82630;SDS011;72301;52.376;9.738;2024-01-07T13:40:26;4.28;;;1.65;;
82630;SDS011;72301;52.376;9.738;2024-01-07T13:42:52;4.23;;;1.63;;
82630;SDS011;72301;52.376;9.738;2024-01-07T13:45:18;4.05;;;1.42;;
82630;SDS011;72301;52.376;9.738;2024-01-07T13:47:47;4.40;;;1.55;;
82630;SDS011;72301;52.376;9.738;2024-01-07T13:50:13;4.20;;;1.50;;
82630;SDS011;72301;52.376;9.738;2024-01-07T13:52:38;3.95;;;1.40;;
82630;SDS011;72301;52.376;9.738;2024-01-07T13:55:04;5.05;;;1.48;;
82630;SDS011;72301;52.376;9.738;2024-01-07T13:57:30;3.80;;;1.60;;
82630;SDS011;72301;52.376;9.738;2024-01-07T13:59:55;4.05;;;1.60;;
82630;SDS011;72301;52.376;9.738;2024-01-07T14:02:21;5.13;;;1.52;;
82630;SDS011;72301;52.376;9.738;2024-01-07T14:04:47;4.10;;;1.33;;
82630;SDS011;72301;52.376;9.738;2024-01-07T14:07:13;3.80;;;1.30;;
82630;SDS011;72301;52.376;9.738;2024-01-07T14:09:38;4.55;;;1.73;;
82630;SDS011;72301;52.376;9.738;2024-01-07T14:12:04;4.30;;;1.60;;
82630;SDS011;72301;52.376;9.738;2024-01-07T14:14:29;4.15;;;1.42;;
82630;SDS011;72301;52.376;9.738;2024-01-07T14:16:54;4.67;;;1.70;;
82630;SDS011;72301;52.376;9.738;2024-01-07T14:19:20;4.80;;;1.50;;
82630;SDS011;72301;52.376;9.738;2024-01-07T14:21:46;5.05;;;1.88;;
82630;SDS011;72301;52.376;9.738;2024-01-07T14:24:12;5.07;;;1.70;;
82630;SDS011;72301;52.376;9.738;2024-01-07T14:26:38;4.50;;;1.60;;
82630;SDS011;72301;52.376;9.738;2024-01-07T14:29:04;4.10;;;1.43;;
82630;SDS011;72301;52.376;9.738;2024-01-07T14:31:30;5.78;;;1.67;;
82630;SDS011;72301;52.376;9.738;2024-01-07T14:33:55;4.20;;;1.55;;
82630;SDS011;72301;52.376;9.738;2024-01-07T14:36:20;4.90;;;1.57;;
82630;SDS011;72301;52.376;9.738;2024-01-07T14:38:46;3.65;;;1.38;;
82630;SDS011;72301;52.376;9.738;2024-01-07T14:41:12;4.00;;;1.58;;
82630;SDS011;72301;52.376;9.738;2024-01-07T14:43:40;6.22;;;1.50;;
82630;SDS011;72301;52.376;9.738;2024-01-07T14:46:06;3.95;;;1.58;;
82630;SDS011;72301;52.376;9.738;2024-01-07T14:48:32;5.05;;;1.60;;